Time;durP1;ratioP1;P1;durP2;ratioP2;P2;SDS_P1;SDS_P2;PMS_P1;PMS_P2;Temp;Humidity;BMP_temperature;BMP_pressure;BME280_temperature;BME280_humidity;BME280_pressure;Samples;Min_cycle;Max_cycle;Signal;HPM_P1;HPM_P2
2021/12/14 00:02:15;;;;;;;12.52;9.85;;;8.40;99.90;;;;;;5074370;28;20113;-81
2021/12/14 00:04:42;;;;;;;14.77;10.43;;;8.40;99.90;;;;;;5063557;28;20040;-81
2021/12/14 00:07:15;;;;;;;13.13;9.80;;;8.40;99.90;;;;;;5057625;28;20566;-81
2021/12/14 00:09:42;;;;;;;13.40;10.18;;;8.40;99.90;;;;;;5038784;28;20040;-81
2021/12/14 00:12:33;;;;;;;16.17;9.98;;;8.40;99.90;;;;;;5052625;28;20409;-81
2021/12/14 00:15:09;;;;;;;12.85;9.45;;;8.30;99.90;;;;;;5068599;28;20049;-81
2021/12/14 00:17:47;;;;;;;12.68;8.82;;;8.30;99.90;;;;;;5038283;28;20033;-81
2021/12/14 00:20:20;;;;;;;11.60;8.68;;;8.30;99.90;;;;;;5052155;28;20048;-81
2021/12/14 00:25:25;;;;;;;12.93;10.02;;;8.40;99.90;;;;;;5053035;28;20045;-81
2021/12/14 00:27:51;;;;;;;13.20;8.45;;;8.30;99.90;;;;;;5052578;28;20037;-81
2021/12/14 00:30:17;;;;;;;13.23;8.20;;;8.40;99.90;;;;;;5052004;28;20028;-81
2021/12/14 00:32:43;;;;;;;12.63;8.23;;;8.40;99.90;;;;;;5070112;28;20075;-80
2021/12/14 00:35:12;;;;;;;15.32;8.75;;;8.40;99.90;;;;;;5036009;28;20071;-81
2021/12/14 00:37:45;;;;;;;13.10;8.60;;;8.40;99.90;;;;;;5054712;28;20045;-81
2021/12/14 00:40:31;;;;;;;12.73;9.55;;;8.40;99.90;;;;;;5069080;28;20124;-81
2021/12/14 00:42:59;;;;;;;12.20;9.63;;;8.40;99.90;;;;;;5067999;28;20094;-81
2021/12/14 00:45:27;;;;;;;10.40;7.93;;;8.40;99.90;;;;;;5054305;28;20037;-81
2021/12/14 00:47:53;;;;;;;12.82;9.20;;;8.40;99.90;;;;;;5054764;28;20481;-81
2021/12/14 00:50:21;;;;;;;13.43;9.27;;;8.40;99.90;;;;;;5069268;28;20033;-81
2021/12/14 00:52:47;;;;;;;14.13;8.80;;;8.40;99.90;;;;;;5054249;28;20558;-81
2021/12/14 00:55:18;;;;;;;14.40;8.48;;;8.40;99.90;;;;;;5053385;28;20045;-81
2021/12/14 00:57:44;;;;;;;11.90;9.10;;;8.40;99.90;;;;;;5050363;28;20079;-81
2021/12/14 01:00:16;;;;;;;14.68;9.52;;;8.40;99.90;;;;;;5057318;28;20079;-81
2021/12/14 01:02:42;;;;;;;12.60;9.00;;;8.40;99.90;;;;;;5068343;28;20534;-81
2021/12/14 01:05:18;;;;;;;13.35;9.25;;;8.40;99.90;;;;;;5036358;28;20037;-81
2021/12/14 01:07:44;;;;;;;13.30;8.32;;;8.40;99.90;;;;;;5052103;28;20086;-81
2021/12/14 01:10:32;;;;;;;13.30;10.38;;;8.40;99.90;;;;;;5051859;28;20115;-81
2021/12/14 01:13:04;;;;;;;14.38;9.95;;;8.40;99.90;;;;;;5053025;28;20041;-81
2021/12/14 01:15:51;;;;;;;12.70;8.68;;;8.40;99.90;;;;;;5052515;28;20033;-81
2021/12/14 01:21:10;;;;;;;14.20;10.07;;;8.40;99.90;;;;;;5051195;28;20067;-81
2021/12/14 01:23:37;;;;;;;15.70;10.10;;;8.40;99.90;;;;;;5052002;28;20044;-81
2021/12/14 01:26:13;;;;;;;16.20;9.95;;;8.40;99.90;;;;;;5057889;28;20037;-81
2021/12/14 01:28:41;;;;;;;14.77;10.23;;;8.30;99.90;;;;;;5051819;28;20037;-81
2021/12/14 01:31:24;;;;;;;17.25;11.25;;;8.30;99.90;;;;;;5068210;28;20473;-81
2021/12/14 01:33:59;;;;;;;16.02;10.13;;;8.30;99.90;;;;;;5050903;28;20033;-81
2021/12/14 01:36:37;;;;;;;18.58;10.60;;;8.40;99.90;;;;;;5051272;28;20061;-81
2021/12/14 01:41:56;;;;;;;18.63;10.80;;;8.30;99.90;;;;;;5055083;28;20405;-81
2021/12/14 01:44:25;;;;;;;16.00;12.38;;;8.40;99.90;;;;;;5051351;28;20512;-81
2021/12/14 01:46:58;;;;;;;19.13;10.80;;;8.30;99.90;;;;;;5055717;28;20033;-81
2021/12/14 01:49:27;;;;;;;13.90;9.80;;;8.30;99.90;;;;;;5053944;28;20037;-81
2021/12/14 01:51:57;;;;;;;18.67;12.70;;;8.30;99.90;;;;;;5070675;28;20041;-81
2021/12/14 01:54:29;;;;;;;16.77;11.65;;;8.30;99.90;;;;;;5036675;28;20129;-81
2021/12/14 01:56:54;;;;;;;15.30;11.90;;;8.30;99.90;;;;;;5047836;28;20047;-81
2021/12/14 01:59:34;;;;;;;18.58;11.10;;;8.30;99.90;;;;;;5054073;28;20032;-81
2021/12/14 02:02:21;;;;;;;17.08;12.77;;;8.30;99.90;;;;;;5069088;28;20040;-81
2021/12/14 02:04:50;;;;;;;15.20;10.48;;;8.30;99.90;;;;;;5053377;28;20174;-81
2021/12/14 02:07:18;;;;;;;18.45;13.00;;;8.30;99.90;;;;;;5065963;28;20421;-81
2021/12/14 02:09:45;;;;;;;19.10;12.77;;;8.30;99.90;;;;;;5067378;28;20043;-81
2021/12/14 02:12:15;;;;;;;18.83;12.98;;;8.30;99.90;;;;;;5052884;28;20043;-81
2021/12/14 02:14:42;;;;;;;18.88;12.30;;;8.30;99.90;;;;;;5050597;28;20080;-81
2021/12/14 02:17:12;;;;;;;18.63;13.27;;;8.30;99.90;;;;;;5067938;28;20389;-81
2021/12/14 02:19:40;;;;;;;19.50;12.45;;;8.30;99.90;;;;;;5050465;28;20040;-81
2021/12/14 02:22:08;;;;;;;16.15;11.88;;;8.30;99.90;;;;;;5049909;28;20056;-81
2021/12/14 02:24:36;;;;;;;19.55;12.68;;;8.30;99.90;;;;;;5053388;28;20076;-81
2021/12/14 02:27:03;;;;;;;20.83;13.75;;;8.30;99.90;;;;;;5071152;28;20099;-81
2021/12/14 02:29:35;;;;;;;18.63;12.30;;;8.30;99.90;;;;;;5051908;28;20033;-81
2021/12/14 02:32:03;;;;;;;18.85;12.40;;;8.30;99.90;;;;;;5052706;28;20085;-81
2021/12/14 02:34:28;;;;;;;18.70;13.80;;;8.30;99.90;;;;;;5049664;28;20097;-81
2021/12/14 02:36:54;;;;;;;20.00;12.00;;;8.30;99.90;;;;;;5075291;28;20083;-81
2021/12/14 02:39:46;;;;;;;20.15;14.02;;;8.30;99.90;;;;;;5051371;28;20040;-81
2021/12/14 02:42:23;;;;;;;17.95;12.48;;;8.30;99.90;;;;;;5052307;28;20052;-81
2021/12/14 02:44:52;;;;;;;18.20;12.13;;;8.30;99.90;;;;;;5051857;28;20089;-81
2021/12/14 02:47:20;;;;;;;21.20;13.77;;;8.30;99.90;;;;;;5051540;28;20029;-81
2021/12/14 02:49:48;;;;;;;21.67;13.48;;;8.30;99.90;;;;;;5054998;28;20385;-81
2021/12/14 02:52:25;;;;;;;19.88;13.45;;;8.30;99.90;;;;;;5052088;28;20531;-81
2021/12/14 02:54:53;;;;;;;22.83;15.40;;;8.30;99.90;;;;;;5056071;28;20033;-81
2021/12/14 02:57:25;;;;;;;22.00;13.60;;;8.30;99.90;;;;;;5057314;28;20090;-81
2021/12/14 02:59:54;;;;;;;22.60;13.23;;;8.30;99.90;;;;;;5058399;28;20041;-81
2021/12/14 03:02:24;;;;;;;21.05;13.82;;;8.30;99.90;;;;;;5071592;28;20040;-81
2021/12/14 03:05:03;;;;;;;22.33;14.77;;;8.30;99.90;;;;;;5057523;28;20033;-81
2021/12/14 03:07:38;;;;;;;20.55;13.85;;;8.30;99.90;;;;;;5056068;28;20068;-81
2021/12/14 03:10:19;;;;;;;24.63;14.45;;;8.30;99.90;;;;;;5040051;28;20059;-81
2021/12/14 03:12:53;;;;;;;22.67;13.55;;;8.20;99.90;;;;;;5058410;28;20505;-81
2021/12/14 03:15:29;;;;;;;22.40;14.15;;;8.20;99.90;;;;;;5054697;28;20045;-81
2021/12/14 03:17:58;;;;;;;19.77;15.25;;;8.30;99.90;;;;;;5055975;28;20422;-81
2021/12/14 03:20:56;;;;;;;22.42;15.07;;;8.20;99.90;;;;;;5054492;28;20044;-80
2021/12/14 03:23:37;;;;;;;23.20;14.85;;;8.20;99.90;;;;;;5056227;28;20401;-81
2021/12/14 03:26:06;;;;;;;26.83;16.58;;;8.20;99.90;;;;;;5055628;28;20051;-81
2021/12/14 03:28:33;;;;;;;21.55;14.13;;;8.20;99.90;;;;;;5056297;28;20037;-81
2021/12/14 03:31:02;;;;;;;22.52;15.10;;;8.10;99.90;;;;;;5055424;28;20044;-81
2021/12/14 03:33:33;;;;;;;21.80;14.70;;;8.10;99.90;;;;;;5071398;28;20033;-81
2021/12/14 03:36:11;;;;;;;23.65;17.08;;;8.10;99.90;;;;;;5053331;28;20045;-81
2021/12/14 03:38:41;;;;;;;23.50;16.40;;;8.00;99.90;;;;;;5052117;28;20045;-81
2021/12/14 03:41:30;;;;;;;25.23;16.58;;;7.90;99.90;;;;;;5038344;28;20135;-81
2021/12/14 03:44:18;;;;;;;27.33;15.30;;;7.90;99.90;;;;;;5070736;28;20044;-81
2021/12/14 03:46:52;;;;;;;27.42;17.75;;;7.80;99.90;;;;;;5066268;28;20036;-81
2021/12/14 03:49:19;;;;;;;27.05;16.35;;;7.80;99.90;;;;;;5050724;28;20039;-80
2021/12/14 03:51:46;;;;;;;25.95;17.85;;;7.80;99.90;;;;;;5052929;28;20029;-81
2021/12/14 03:54:15;;;;;;;28.05;17.45;;;7.80;99.90;;;;;;5059269;28;20220;-81
2021/12/14 03:56:40;;;;;;;26.75;17.23;;;7.70;99.90;;;;;;5038857;28;20033;-81
2021/12/14 03:59:06;;;;;;;31.23;17.23;;;7.80;99.90;;;;;;5071989;28;20043;-81
2021/12/14 04:01:37;;;;;;;28.92;18.10;;;7.80;99.90;;;;;;5054981;28;20143;-81
2021/12/14 04:04:26;;;;;;;28.23;18.83;;;7.80;99.90;;;;;;5040068;28;20045;-81
2021/12/14 04:06:55;;;;;;;24.42;16.48;;;7.80;99.90;;;;;;5054201;28;20067;-81
2021/12/14 04:09:23;;;;;;;27.58;17.27;;;7.80;99.90;;;;;;5077469;28;20046;-81
2021/12/14 04:11:50;;;;;;;30.13;17.95;;;7.80;99.90;;;;;;5093966;28;20035;-81
2021/12/14 04:14:16;;;;;;;29.67;17.70;;;7.80;99.90;;;;;;5093902;28;20048;-81
2021/12/14 04:16:47;;;;;;;28.98;17.67;;;7.80;99.90;;;;;;5094098;28;20028;-81
2021/12/14 04:19:20;;;;;;;34.90;21.75;;;7.90;99.90;;;;;;5095040;28;20044;-81
2021/12/14 04:21:46;;;;;;;32.40;19.65;;;7.90;99.90;;;;;;5091251;28;20048;-81
2021/12/14 04:24:14;;;;;;;31.25;21.02;;;7.80;99.90;;;;;;5049581;28;20045;-81
2021/12/14 04:26:44;;;;;;;33.30;20.15;;;7.90;99.90;;;;;;5064115;28;20091;-81
2021/12/14 04:29:12;;;;;;;29.83;19.73;;;7.90;99.90;;;;;;5079471;28;20040;-81
2021/12/14 04:31:38;;;;;;;29.70;18.52;;;7.90;99.90;;;;;;5046495;28;20029;-81
2021/12/14 04:34:05;;;;;;;27.48;17.52;;;8.00;99.90;;;;;;5066215;28;20041;-81
2021/12/14 04:36:31;;;;;;;28.90;18.75;;;8.00;99.90;;;;;;5077373;28;20044;-81
2021/12/14 04:39:18;;;;;;;31.08;20.15;;;8.00;99.90;;;;;;5059763;28;20041;-81
2021/12/14 04:53:10;;;;;;;28.27;18.30;;;8.10;99.90;;;;;;5058064;28;20064;-81
2021/12/14 04:55:39;;;;;;;31.48;19.52;;;8.10;99.90;;;;;;5059886;28;20098;-81
2021/12/14 04:58:05;;;;;;;33.08;20.88;;;8.20;99.90;;;;;;5040254;28;20052;-81
2021/12/14 05:00:38;;;;;;;30.20;19.55;;;8.20;99.90;;;;;;5061070;28;20041;-81
2021/12/14 05:03:13;;;;;;;29.80;18.70;;;8.10;99.90;;;;;;5041390;28;20041;-81
2021/12/14 05:05:46;;;;;;;30.07;19.17;;;8.10;99.90;;;;;;5074366;28;20044;-81
2021/12/14 05:11:08;;;;;;;30.10;20.30;;;8.10;99.90;;;;;;5067360;28;20377;-81
2021/12/14 05:13:42;;;;;;;36.03;21.75;;;8.20;99.90;;;;;;5070556;28;20036;-81
2021/12/14 05:16:17;;;;;;;36.85;20.92;;;8.20;99.90;;;;;;5076818;28;20043;-81
2021/12/14 05:18:56;;;;;;;30.77;20.00;;;8.30;99.90;;;;;;5043443;28;20037;-81
2021/12/14 05:21:25;;;;;;;34.38;20.75;;;8.20;99.90;;;;;;5057182;28;20487;-81
2021/12/14 05:23:51;;;;;;;30.27;18.63;;;8.30;99.90;;;;;;5058538;28;20068;-81
2021/12/14 05:26:18;;;;;;;30.38;19.33;;;8.30;99.90;;;;;;5075180;28;20078;-81
2021/12/14 05:28:44;;;;;;;35.58;20.58;;;8.30;99.90;;;;;;5052278;28;20103;-81
2021/12/14 05:31:10;;;;;;;28.10;18.77;;;8.30;99.90;;;;;;5069637;28;20037;-81
2021/12/14 05:33:36;;;;;;;33.47;20.40;;;8.30;99.90;;;;;;5040168;28;20048;-81
2021/12/14 05:36:08;;;;;;;30.27;20.42;;;8.30;99.90;;;;;;5073030;28;20527;-81
2021/12/14 05:43:05;;;;;;;33.97;20.88;;;8.40;99.90;;;;;;5061698;28;20076;-81
2021/12/14 05:43:56;;;;;;;39.10;22.10;;;8.40;99.90;;;;;;5055028;28;20576;-81
2021/12/14 05:46:22;;;;;;;37.92;20.40;;;8.40;99.90;;;;;;5078647;28;20438;-81
2021/12/14 05:48:48;;;;;;;30.30;20.27;;;8.40;99.90;;;;;;5047808;28;20048;-81
2021/12/14 05:51:13;;;;;;;29.70;16.92;;;8.50;99.90;;;;;;5062233;28;20377;-81
2021/12/14 05:53:43;;;;;;;34.65;20.33;;;8.50;99.90;;;;;;5058275;28;21320;-81
2021/12/14 05:56:16;;;;;;;37.67;20.77;;;8.40;99.90;;;;;;5064053;28;20037;-81
2021/12/14 05:58:42;;;;;;;35.40;20.70;;;8.40;99.90;;;;;;5058443;28;20056;-81
2021/12/14 06:01:11;;;;;;;38.72;23.35;;;8.50;99.90;;;;;;5070803;28;20366;-81
2021/12/14 06:03:46;;;;;;;39.70;23.73;;;8.50;99.90;;;;;;5064177;28;20048;-81
2021/12/14 06:06:24;;;;;;;32.13;19.58;;;8.50;99.90;;;;;;5036697;28;20044;-81
2021/12/14 06:08:58;;;;;;;28.30;18.98;;;8.50;99.90;;;;;;5060320;28;20553;-81
2021/12/14 06:11:26;;;;;;;30.95;21.42;;;8.50;99.90;;;;;;5063747;28;20040;-81
2021/12/14 06:13:52;;;;;;;34.55;23.02;;;8.50;99.90;;;;;;5057677;28;20041;-81
2021/12/14 06:16:33;;;;;;;38.28;21.98;;;8.50;99.90;;;;;;5074545;28;20040;-81
2021/12/14 06:19:15;;;;;;;33.72;19.38;;;8.50;99.90;;;;;;5040018;28;20059;-81
2021/12/14 06:21:42;;;;;;;33.72;21.38;;;8.40;99.90;;;;;;5058595;28;20084;-81
2021/12/14 06:24:09;;;;;;;37.88;23.73;;;8.40;99.90;;;;;;5042749;28;20040;-81
2021/12/14 06:26:50;;;;;;;35.90;22.13;;;8.40;99.90;;;;;;5041367;28;20499;-82
2021/12/14 06:29:23;;;;;;;37.50;22.45;;;8.30;99.90;;;;;;5049051;28;20106;-81
2021/12/14 06:31:51;;;;;;;39.63;24.23;;;8.30;99.90;;;;;;5057509;28;20404;-81
2021/12/14 06:34:23;;;;;;;39.30;23.50;;;8.30;99.90;;;;;;5070092;28;20397;-81
2021/12/14 06:37:03;;;;;;;41.15;26.35;;;8.30;99.90;;;;;;5062870;28;20501;-82
2021/12/14 06:39:50;;;;;;;44.78;28.25;;;8.20;99.90;;;;;;5049076;28;20048;-79
2021/12/14 06:42:15;;;;;;;44.97;27.77;;;8.20;99.90;;;;;;5062418;28;20097;-79
2021/12/14 06:44:41;;;;;;;43.10;27.00;;;8.20;99.90;;;;;;5048857;28;20033;-79
2021/12/14 06:47:07;;;;;;;46.00;29.17;;;8.20;99.90;;;;;;5065851;28;20385;-79
2021/12/14 06:49:34;;;;;;;42.05;24.83;;;8.30;99.90;;;;;;5057319;28;20032;-79
2021/12/14 06:51:59;;;;;;;46.70;27.92;;;8.30;99.90;;;;;;5075015;28;20056;-79
2021/12/14 06:54:29;;;;;;;46.35;28.85;;;8.30;99.90;;;;;;5067074;28;20051;-80
2021/12/14 06:57:00;;;;;;;43.85;27.45;;;8.30;99.90;;;;;;5065567;28;20556;-81
2021/12/14 06:59:27;;;;;;;49.40;27.95;;;8.30;99.90;;;;;;5076170;28;20511;-81
2021/12/14 07:01:56;;;;;;;46.33;28.08;;;8.30;99.90;;;;;;5070945;28;20041;-80
2021/12/14 07:04:27;;;;;;;45.65;29.23;;;8.30;99.90;;;;;;5064278;28;20099;-80
2021/12/14 07:06:57;;;;;;;44.97;28.15;;;8.30;99.90;;;;;;5074569;28;20039;-81
2021/12/14 07:09:36;;;;;;;41.47;27.35;;;8.30;99.90;;;;;;5067165;28;20130;-80
2021/12/14 07:12:06;;;;;;;44.38;26.67;;;8.30;99.90;;;;;;5064333;28;20535;-81
2021/12/14 07:14:32;;;;;;;46.15;28.48;;;8.30;99.90;;;;;;5064575;28;20041;-81
2021/12/14 07:17:02;;;;;;;47.00;28.05;;;8.30;99.90;;;;;;5064963;28;20128;-80
2021/12/14 07:19:53;;;;;;;49.05;29.48;;;8.30;99.90;;;;;;5067280;28;20055;-81
2021/12/14 07:22:31;;;;;;;39.42;25.30;;;8.30;99.90;;;;;;5049224;28;20037;-81
2021/12/14 07:25:12;;;;;;;45.50;27.33;;;8.30;99.90;;;;;;5090446;28;20044;-81
2021/12/14 07:27:48;;;;;;;51.00;30.80;;;8.30;99.90;;;;;;5073215;28;20059;-81
2021/12/14 07:30:26;;;;;;;52.97;30.83;;;8.40;99.90;;;;;;5046377;28;20044;-81
2021/12/14 07:33:14;;;;;;;52.13;31.42;;;8.30;99.90;;;;;;5071085;28;20443;-81
2021/12/14 07:35:54;;;;;;;54.33;34.42;;;8.30;99.90;;;;;;5051207;28;20090;-81
2021/12/14 07:38:46;;;;;;;57.95;33.03;;;8.30;99.90;;;;;;5059906;28;20041;-81
2021/12/14 07:41:30;;;;;;;57.40;32.90;;;8.30;99.90;;;;;;5065155;28;20039;-81
2021/12/14 07:44:09;;;;;;;54.85;34.20;;;8.20;99.90;;;;;;5071826;28;20041;-82
2021/12/14 07:46:35;;;;;;;59.88;34.70;;;8.20;99.90;;;;;;5061122;28;20041;-82
2021/12/14 07:49:08;;;;;;;55.13;34.03;;;8.20;99.90;;;;;;5041617;28;20048;-81
2021/12/14 07:51:37;;;;;;;61.88;35.33;;;8.20;99.90;;;;;;5047988;28;20419;-81
2021/12/14 07:54:17;;;;;;;59.20;33.28;;;8.20;99.90;;;;;;5064367;28;20488;-82
2021/12/14 07:56:50;;;;;;;66.18;37.70;;;8.20;99.90;;;;;;5066851;28;20169;-82
2021/12/14 07:59:46;;;;;;;66.32;39.05;;;8.20;99.90;;;;;;5064108;28;20045;-82
2021/12/14 08:02:18;;;;;;;61.03;36.95;;;8.20;99.90;;;;;;5061738;28;20059;-83
2021/12/14 08:04:54;;;;;;;70.35;41.75;;;8.20;99.90;;;;;;5036658;28;20040;-83
2021/12/14 08:07:21;;;;;;;;;;;8.20;99.90;;;;;;5069710;28;20037;-84
2021/12/14 08:09:48;;;;;;;74.60;43.05;;;8.20;99.90;;;;;;5047109;28;19917;-83
2021/12/14 08:12:35;;;;;;;72.70;40.97;;;8.20;99.90;;;;;;5062684;28;20045;-83
2021/12/14 08:15:13;;;;;;;79.80;43.60;;;8.20;99.90;;;;;;5056271;28;20037;-83
2021/12/14 08:17:40;;;;;;;79.03;43.90;;;8.20;99.90;;;;;;5057534;28;20039;-83
2021/12/14 08:20:09;;;;;;;72.28;41.42;;;8.20;99.90;;;;;;5058556;28;20048;-82
2021/12/14 08:22:37;;;;;;;76.72;43.30;;;8.20;99.90;;;;;;5050703;28;20044;-83
2021/12/14 08:25:05;;;;;;;76.00;43.08;;;8.20;99.90;;;;;;5053916;28;20033;-83
2021/12/14 08:27:31;;;;;;;74.22;41.85;;;8.20;99.90;;;;;;5046028;28;20040;-84
2021/12/14 08:30:00;;;;;;;65.90;39.88;;;8.20;99.90;;;;;;5073599;28;20079;-83
2021/12/14 08:32:35;;;;;;;77.82;42.78;;;8.20;99.90;;;;;;5058912;28;20041;-83
2021/12/14 08:35:05;;;;;;;68.03;40.97;;;8.30;99.90;;;;;;5065627;28;20143;-83
2021/12/14 08:37:37;;;;;;;74.78;40.67;;;8.30;99.90;;;;;;5052242;28;20044;-83
2021/12/14 08:40:12;;;;;;;69.95;38.03;;;8.40;99.90;;;;;;5071699;28;20036;-83
2021/12/14 08:42:48;;;;;;;;;;;8.40;99.90;;;;;;5041124;28;20033;-84
2021/12/14 08:45:26;;;;;;;69.72;39.45;;;8.40;99.90;;;;;;5069122;28;19947;-84
2021/12/14 08:48:05;;;;;;;69.20;38.92;;;8.40;99.90;;;;;;5052024;28;20120;-83
2021/12/14 08:50:37;;;;;;;63.30;37.65;;;8.50;99.90;;;;;;5041060;28;20052;-82
2021/12/14 08:53:05;;;;;;;65.93;37.47;;;8.50;99.90;;;;;;5064838;28;20069;-83
2021/12/14 08:55:32;;;;;;;65.72;36.83;;;8.50;99.90;;;;;;5057638;28;20037;-84
2021/12/14 08:57:59;;;;;;;63.20;36.70;;;8.50;99.90;;;;;;5039117;28;20559;-83
2021/12/14 09:00:31;;;;;;;64.75;38.10;;;8.60;99.90;;;;;;5038754;28;20123;-83
2021/12/14 09:03:00;;;;;;;70.38;37.38;;;8.60;99.90;;;;;;5037136;28;20041;-83
2021/12/14 09:05:33;;;;;;;61.35;37.45;;;8.60;99.90;;;;;;5062983;28;20083;-83
2021/12/14 09:07:59;;;;;;;65.45;37.78;;;8.60;99.90;;;;;;5059338;28;20067;-83
2021/12/14 09:10:28;;;;;;;65.25;37.13;;;8.60;99.90;;;;;;5070144;28;20377;-83
2021/12/14 09:12:59;;;;;;;64.47;34.30;;;8.60;99.90;;;;;;5047608;28;20111;-83
2021/12/14 09:15:31;;;;;;;59.40;37.75;;;8.60;99.90;;;;;;5040168;28;20037;-83
2021/12/14 09:17:57;;;;;;;60.53;34.78;;;8.60;99.90;;;;;;5043015;28;20040;-83
2021/12/14 09:20:33;;;;;;;60.13;36.15;;;8.70;99.90;;;;;;5044408;28;20033;-83
2021/12/14 09:23:04;;;;;;;66.47;36.47;;;8.70;99.90;;;;;;5047145;28;20059;-83
2021/12/14 09:25:32;;;;;;;55.28;33.67;;;8.70;99.90;;;;;;5052001;28;20052;-83
2021/12/14 09:28:05;;;;;;;53.83;31.65;;;8.70;99.90;;;;;;5059503;28;20024;-83
2021/12/14 09:30:35;;;;;;;57.92;35.08;;;8.70;99.90;;;;;;5061023;28;20136;-84
2021/12/14 09:33:03;;;;;;;60.22;36.85;;;8.80;99.90;;;;;;5074351;28;20025;-82
2021/12/14 09:35:31;;;;;;;51.97;30.33;;;8.70;99.90;;;;;;5084888;28;20033;-81
2021/12/14 09:37:58;;;;;;;57.75;34.60;;;8.80;99.90;;;;;;5086033;28;20049;-81
2021/12/14 09:40:29;;;;;;;53.75;31.27;;;8.80;99.90;;;;;;5072985;28;20070;-81
2021/12/14 09:42:55;;;;;;;57.17;32.65;;;8.80;99.90;;;;;;5068171;28;20064;-82
2021/12/14 09:45:33;;;;;;;54.03;33.60;;;8.80;99.90;;;;;;5069465;28;20036;-82
2021/12/14 09:48:01;;;;;;;53.40;33.85;;;8.80;99.90;;;;;;5056505;28;20095;-83
2021/12/14 09:50:30;;;;;;;48.65;32.10;;;8.90;99.90;;;;;;5072491;28;20716;-84
2021/12/14 09:53:00;;;;;;;50.58;31.33;;;8.90;99.90;;;;;;5039015;28;20048;-84
2021/12/14 09:55:29;;;;;;;54.38;31.70;;;8.90;99.90;;;;;;5058992;28;20047;-84
2021/12/14 09:58:00;;;;;;;49.35;30.58;;;8.90;99.90;;;;;;5064639;28;20419;-83
2021/12/14 10:00:42;;;;;;;52.40;33.35;;;9.00;99.90;;;;;;5045074;28;20613;-82
2021/12/14 10:03:08;;;;;;;53.92;31.83;;;9.00;99.90;;;;;;5053276;28;20090;-81
2021/12/14 10:05:59;;;;;;;51.85;33.30;;;9.00;99.90;;;;;;5041902;28;20037;-82
2021/12/14 10:08:32;;;;;;;56.72;33.42;;;9.00;99.90;;;;;;5056673;28;20040;-82
2021/12/14 10:11:09;;;;;;;49.33;30.92;;;9.10;99.90;;;;;;5053042;28;20033;-81
2021/12/14 10:13:39;;;;;;;55.40;30.98;;;9.10;99.90;;;;;;5039964;28;20040;-81
2021/12/14 10:16:06;;;;;;;49.05;30.63;;;9.10;99.90;;;;;;5046062;28;20045;-82
2021/12/14 10:18:34;;;;;;;56.58;33.78;;;9.10;99.90;;;;;;5064881;28;20037;-83
2021/12/14 10:21:14;;;;;;;50.35;31.13;;;9.10;99.90;;;;;;5054478;28;20048;-82
2021/12/14 10:23:42;;;;;;;55.47;32.38;;;9.10;99.90;;;;;;5046908;28;20033;-82
2021/12/14 10:26:09;;;;;;;54.13;32.78;;;9.10;99.90;;;;;;5051050;28;20033;-82
2021/12/14 10:28:39;;;;;;;54.05;33.75;;;9.00;99.90;;;;;;5038667;28;20032;-82
2021/12/14 10:31:12;;;;;;;57.58;35.65;;;8.90;99.90;;;;;;5038134;28;20039;-81
2021/12/14 10:33:39;;;;;;;57.35;34.35;;;8.90;99.90;;;;;;5047010;28;20037;-82
2021/12/14 10:36:22;;;;;;;56.13;34.97;;;8.90;99.90;;;;;;5055732;28;20033;-81
2021/12/14 10:39:06;;;;;;;54.80;31.80;;;8.90;99.90;;;;;;5064366;28;20068;-84
2021/12/14 10:44:16;;;;;;;57.67;34.17;;;8.90;99.90;;;;;;5075683;28;20064;-81
2021/12/14 10:46:46;;;;;;;57.47;32.67;;;8.90;99.90;;;;;;5048194;28;20025;-81
2021/12/14 10:49:15;;;;;;;56.58;33.38;;;8.90;99.90;;;;;;5040055;28;20075;-81
2021/12/14 10:51:43;;;;;;;53.05;34.30;;;8.90;99.90;;;;;;5037901;28;20037;-81
2021/12/14 10:54:12;;;;;;;59.88;36.95;;;8.90;99.90;;;;;;5039438;28;20186;-82
2021/12/14 10:56:48;;;;;;;54.90;33.35;;;8.90;99.90;;;;;;5061109;28;20123;-81
2021/12/14 10:59:16;;;;;;;;;;;8.90;99.90;;;;;;5041294;28;20507;-83
2021/12/14 11:01:48;;;;;;;48.35;29.45;;;9.00;99.90;;;;;;5060002;28;19971;-82
2021/12/14 11:04:15;;;;;;;57.08;34.38;;;9.00;99.90;;;;;;5051411;28;20048;-83
2021/12/14 11:06:45;;;;;;;51.42;31.88;;;9.00;99.90;;;;;;5062212;28;20043;-82
2021/12/14 11:12:07;;;;;;;52.70;30.70;;;9.00;99.90;;;;;;5058785;28;20106;-82
2021/12/14 11:14:37;;;;;;;47.60;26.55;;;9.10;99.90;;;;;;5048553;28;20047;-82
2021/12/14 11:20:09;;;;;;;46.22;29.90;;;9.10;99.90;;;;;;5056297;28;20505;-83
2021/12/14 11:23:00;;;;;;;61.78;36.75;;;9.10;99.90;;;;;;5038543;28;20048;-82
2021/12/14 11:25:29;;;;;;;53.58;32.28;;;9.10;99.90;;;;;;5066517;28;20493;-83
2021/12/14 11:28:23;;;;;;;59.30;35.83;;;9.10;99.90;;;;;;5057680;28;20122;-83
2021/12/14 11:30:57;;;;;;;63.88;37.22;;;9.10;99.90;;;;;;5040683;28;20044;-83
2021/12/14 11:33:27;;;;;;;59.33;37.17;;;9.10;99.90;;;;;;5065650;28;20488;-83
2021/12/14 11:35:59;;;;;;;64.93;37.33;;;9.10;99.90;;;;;;5049471;28;20507;-83
2021/12/14 11:38:29;;;;;;;54.83;33.33;;;9.10;99.90;;;;;;5052273;28;20063;-83
2021/12/14 11:40:58;;;;;;;56.95;32.10;;;9.00;99.90;;;;;;5046336;28;20047;-83
2021/12/14 11:43:26;;;;;;;54.45;32.15;;;9.00;99.90;;;;;;5060388;28;20107;-82
2021/12/14 11:45:51;;;;;;;62.63;39.03;;;9.00;99.90;;;;;;5062041;28;20055;-82
2021/12/14 11:48:35;;;;;;;49.25;30.10;;;9.00;99.90;;;;;;5067642;28;20033;-83
2021/12/14 11:51:04;;;;;;;52.05;33.47;;;9.00;99.90;;;;;;5039559;28;20041;-82
2021/12/14 11:53:30;;;;;;;47.65;28.90;;;8.90;99.90;;;;;;5062971;28;20036;-83
2021/12/14 11:56:00;;;;;;;48.20;30.20;;;8.90;99.90;;;;;;5039639;28;20037;-82
2021/12/14 11:58:43;;;;;;;42.20;29.02;;;8.90;99.90;;;;;;5061963;28;20037;-83
2021/12/14 12:01:11;;;;;;;49.25;31.23;;;8.90;99.90;;;;;;5048942;28;20037;-83
2021/12/14 12:03:39;;;;;;;48.05;29.33;;;9.00;99.90;;;;;;5043307;28;20500;-82
2021/12/14 12:06:10;;;;;;;51.70;31.80;;;9.00;99.90;;;;;;5056262;28;20041;-82
2021/12/14 12:11:33;;;;;;;50.20;30.80;;;9.00;99.90;;;;;;5049865;28;20037;-82
2021/12/14 12:14:00;;;;;;;50.80;30.48;;;9.00;99.90;;;;;;5077791;28;20041;-82
2021/12/14 12:16:27;;;;;;;53.95;31.17;;;9.00;99.90;;;;;;5053149;28;20037;-83
2021/12/14 12:19:14;;;;;;;48.92;31.58;;;9.00;99.90;;;;;;5058345;28;20032;-83
2021/12/14 12:21:43;;;;;;;51.55;31.77;;;9.00;99.90;;;;;;5073803;28;20032;-82
2021/12/14 12:24:34;;;;;;;62.13;34.92;;;9.00;99.90;;;;;;5070814;28;20045;-81
2021/12/14 12:27:18;;;;;;;51.33;28.00;;;9.00;99.90;;;;;;5066896;28;20287;-81
2021/12/14 12:29:44;;;;;;;53.22;30.70;;;9.00;99.90;;;;;;5053855;28;20111;-82
2021/12/14 12:32:19;;;;;;;52.08;31.15;;;9.00;99.90;;;;;;5060129;28;20037;-81
2021/12/14 12:34:45;;;;;;;51.55;30.70;;;9.00;99.90;;;;;;5056891;28;20426;-81
2021/12/14 12:37:11;;;;;;;58.72;32.60;;;9.00;99.90;;;;;;5063029;28;20115;-82
2021/12/14 12:39:38;;;;;;;58.28;31.90;;;9.00;99.90;;;;;;5064645;28;20072;-84
2021/12/14 12:42:05;;;;;;;56.35;31.83;;;9.10;99.90;;;;;;5055625;28;20037;-83
2021/12/14 12:44:39;;;;;;;53.08;29.83;;;9.10;99.90;;;;;;5073387;28;20036;-81
2021/12/14 12:47:22;;;;;;;52.30;30.13;;;9.10;99.90;;;;;;5068206;28;20072;-81
2021/12/14 12:49:50;;;;;;;59.25;32.10;;;9.10;99.90;;;;;;5055739;28;20040;-81
2021/12/14 12:52:30;;;;;;;53.70;31.20;;;9.10;99.90;;;;;;5070833;28;20450;-81
2021/12/14 12:55:06;;;;;;;49.78;29.02;;;9.10;99.90;;;;;;5052799;28;20041;-80
2021/12/14 12:57:57;;;;;;;57.28;33.65;;;9.20;99.90;;;;;;5055764;28;20045;-83
2021/12/14 13:00:36;;;;;;;37.60;22.30;;;9.20;99.90;;;;;;5065607;28;20086;-82
2021/12/14 13:03:17;;;;;;;43.97;25.50;;;9.20;99.90;;;;;;5062793;28;20037;-80
2021/12/14 13:06:01;;;;;;;45.30;26.38;;;9.20;99.90;;;;;;5051963;28;20032;-80
2021/12/14 13:08:57;;;;;;;42.60;25.48;;;9.20;99.90;;;;;;5037741;28;20037;-81
2021/12/14 13:11:25;;;;;;;;;;;9.20;99.90;;;;;;5060787;28;20521;-81
2021/12/14 13:13:53;;;;;;;47.80;25.75;;;9.30;99.90;;;;;;5044791;28;19916;-81
2021/12/14 13:16:22;;;;;;;42.22;25.83;;;9.30;99.90;;;;;;5045629;28;20037;-82
2021/12/14 13:18:52;;;;;;;48.47;27.67;;;9.30;99.90;;;;;;5061976;28;20037;-80
2021/12/14 13:21:23;;;;;;;45.00;24.92;;;9.40;99.90;;;;;;5044831;28;20041;-80
2021/12/14 13:23:58;;;;;;;49.17;24.83;;;9.30;99.90;;;;;;5053402;28;20159;-80
2021/12/14 13:26:35;;;;;;;43.33;24.85;;;9.40;99.90;;;;;;5061041;28;20111;-81
2021/12/14 13:29:13;;;;;;;43.25;25.13;;;9.40;99.90;;;;;;5053475;28;20036;-83
2021/12/14 13:32:22;;;;;;;38.83;20.98;;;9.40;99.90;;;;;;5053504;28;20091;-82
2021/12/14 13:35:06;;;;;;;46.30;22.73;;;9.30;99.90;;;;;;5045772;28;20552;-83
2021/12/14 13:37:34;;;;;;;38.92;21.35;;;9.40;99.90;;;;;;5057119;28;20033;-81
2021/12/14 13:40:01;;;;;;;42.25;23.20;;;9.30;99.90;;;;;;5038673;28;20072;-82
2021/12/14 13:42:40;;;;;;;45.15;25.40;;;9.40;99.90;;;;;;5059273;28;20082;-81